Aérodrome :
LOGIN :

S'inscrire | Disclaimer

   EN    FR    IT 

 










Légende :    VFR   VFR Marginal   IFR   IFR Intensif   IFR Très Intensif
Visi : 
Plafond : 
>= 8 km
>= 3000ft
5 à 8 km
1000 à 3000 ft
1500m à 5 km
500 à 1000 ft
800 à 1500m
200 à 500 ft
< 800m
< 200 ft
Symboles :   Orages  Brouillard  Fortes neiges  Fortes précipitations  Vent > 20 kt
SIGMETs :   Divers  Orages  Givrage  Turbulence  Onde Orograph.  Cendres Volcan.







- Altitude de l'aérodrome : 23 ft
- Code IATA : XFW


EDHI - Hamburg Finkenwerder

DERNIER METAR :
  • 160750Z 24014KT 9000 -DZ BKN013 OVC022 07/05 Q1005

METARs EXPIRÉS :
  • 160720Z 24014KT 6000 -DZ BKN012 OVC017 07/06 Q1005
  • 160650Z 24014KT 8000 BKN012 OVC020 07/05 Q1005
  • 160620Z 24013KT 9000 BKN012 07/05 Q1005
  • 160550Z 24014KT 9999 SCT011 BKN018 OVC040 07/05 Q1006
  • 160520Z 24014KT 9999 BKN010 OVC018 07/06 Q1006

TAF TAF EDHI
Valide du 16 à 06h jusqu'au 16 à 15h UTC


160530Z 1606/1615 24011KT 9999 BKN012
TEMPO 1606/1615 3500 DZRA BKN006
PROB30
TEMPO 1606/1608 SCT012 BKN030
PROB30
TEMPO 1606/1615 25015G25KT
Pas de NOTAMs connus pour ce terrain.



MET'MAP, la Météo Aéronautique d'un coup d'oeil ! - Copyright ORBIFLY Décembre 2007 - Disclaimer

ORBIFLY MET'MAP TEAM :

Programmation & Développement : Alexandra Zaïnal
Conception & Développement : Baudouin d'Aumeries
Co-Programmation & Développement : Marc-Olivier Méhu
Soutien technique & logistique : Manuel Goepfert

Contact : metmap@orbifly.com




SOURCES & CREDITS :

   NOAA